createdAt,value
2023-01-30T00:01:44.061Z,74.80
2023-01-30T00:04:12.574Z,74.80
2023-01-30T00:06:43.229Z,74.84
2023-01-30T00:09:15.139Z,74.81
2023-01-30T00:11:42.523Z,74.80
2023-01-30T00:14:09.425Z,74.80
2023-01-30T00:16:36.363Z,74.80
2023-01-30T00:19:03.595Z,74.80
2023-01-30T00:21:30.203Z,74.80
2023-01-30T00:23:56.779Z,74.83
2023-01-30T00:26:23.369Z,74.84
2023-01-30T00:28:49.934Z,74.85
2023-01-30T00:31:16.730Z,74.94
2023-01-30T00:33:43.928Z,75.02
2023-01-30T00:36:11.491Z,75.03
2023-01-30T00:38:38.153Z,75.00
2023-01-30T00:41:07.116Z,75.06
2023-01-30T00:43:52.642Z,75.01
2023-01-30T00:46:52.525Z,75.11
2023-01-30T00:49:20.231Z,75.08
2023-01-30T00:51:47.779Z,75.00
2023-01-30T00:54:14.700Z,75.04
2023-01-30T00:56:41.281Z,75.14
2023-01-30T00:59:07.931Z,75.12
2023-01-30T01:01:34.627Z,75.20
2023-01-30T01:04:01.601Z,75.20
2023-01-30T01:06:28.193Z,75.23
2023-01-30T01:08:54.792Z,75.30
2023-01-30T01:11:24.688Z,75.30
2023-01-30T01:13:57.573Z,75.30
2023-01-30T01:16:25.333Z,75.37
2023-01-30T01:18:52.669Z,75.41
2023-01-30T01:21:21.201Z,75.47
2023-01-30T01:23:59.620Z,75.56
2023-01-30T01:26:27.208Z,75.60
2023-01-30T01:28:58.964Z,75.65
2023-01-30T01:31:26.474Z,75.61
2023-01-30T01:33:55.052Z,75.60
2023-01-30T01:36:50.279Z,75.61
2023-01-30T01:39:09.583Z,75.60
2023-01-30T01:41:36.202Z,75.60
2023-01-30T01:44:12.661Z,75.54
2023-01-30T01:46:58.686Z,75.54
2023-01-30T01:49:30.844Z,75.50
2023-01-30T01:52:13.581Z,75.58
2023-01-30T01:55:00.132Z,75.56
2023-01-30T01:57:33.882Z,75.56
2023-01-30T02:00:11.803Z,75.58
2023-01-30T02:02:53.038Z,75.57
2023-01-30T02:05:20.570Z,75.50
2023-01-30T02:08:01.923Z,75.50
2023-01-30T02:10:56.687Z,75.49
2023-01-30T02:13:24.157Z,75.41
2023-01-30T02:15:52.211Z,75.42
2023-01-30T02:18:19.626Z,75.45
2023-01-30T02:21:22.361Z,75.49
2023-01-30T02:24:13.172Z,75.45
2023-01-30T02:26:53.626Z,75.40
2023-01-30T02:30:13.294Z,75.41
2023-01-30T02:33:44.417Z,75.39
2023-01-30T02:36:37.776Z,75.31
2023-01-30T02:39:28.850Z,75.22
2023-01-30T02:42:45.287Z,75.17
2023-01-30T02:45:40.603Z,75.13
2023-01-30T02:48:13.808Z,75.08
2023-01-30T02:50:47.921Z,75.02
2023-01-30T02:53:14.694Z,74.97
2023-01-30T02:55:43.286Z,75.00
2023-01-30T02:58:11.111Z,75.00
2023-01-30T03:01:03.747Z,75.01
2023-01-30T03:04:26.577Z,75.00
2023-01-30T03:07:30.519Z,75.06
2023-01-30T03:10:38.862Z,75.08
2023-01-30T03:13:18.461Z,75.19
2023-01-30T03:15:51.393Z,75.14
2023-01-30T03:18:19.793Z,75.20
2023-01-30T03:20:46.971Z,75.22
2023-01-30T03:23:14.334Z,75.29
2023-01-30T03:25:43.738Z,75.31
2023-01-30T03:28:11.834Z,75.43
2023-01-30T03:30:38.407Z,75.46
2023-01-30T03:33:08.622Z,75.49
2023-01-30T03:35:36.303Z,75.49
2023-01-30T03:38:03.152Z,75.50
2023-01-30T03:40:29.875Z,75.41
2023-01-30T03:42:57.077Z,75.49
2023-01-30T03:45:23.867Z,75.54
2023-01-30T03:47:50.500Z,75.43
2023-01-30T03:50:17.889Z,75.42
2023-01-30T03:52:45.452Z,75.41
2023-01-30T03:55:14.450Z,75.34
2023-01-30T03:57:41.077Z,75.40
2023-01-30T04:00:09.479Z,75.42
2023-01-30T04:02:43.039Z,75.40
2023-01-30T04:05:10.540Z,75.44
2023-01-30T04:07:37.965Z,75.50
2023-01-30T04:10:05.242Z,75.49
2023-01-30T04:12:32.640Z,75.48
2023-01-30T04:14:59.849Z,75.47
2023-01-30T04:17:35.600Z,75.55
2023-01-30T04:20:20.650Z,75.59
2023-01-30T04:22:50.743Z,75.53
2023-01-30T04:25:17.928Z,75.50
2023-01-30T04:27:44.808Z,75.45
2023-01-30T04:30:15.737Z,75.50
2023-01-30T04:32:42.606Z,75.53
2023-01-30T04:35:10.185Z,75.51
2023-01-30T04:37:36.801Z,75.53
2023-01-30T04:40:05.110Z,75.62
2023-01-30T04:42:31.663Z,75.53
2023-01-30T04:45:18.474Z,75.49
2023-01-30T04:47:45.359Z,75.39
2023-01-30T04:50:12.103Z,75.32
2023-01-30T04:52:39.881Z,75.30
2023-01-30T04:55:08.371Z,75.30
2023-01-30T04:57:35.063Z,75.28
2023-01-30T05:00:01.692Z,75.31
2023-01-30T05:02:29.262Z,75.31
2023-01-30T05:04:55.906Z,75.30
2023-01-30T05:07:22.456Z,75.30
2023-01-30T05:09:49.214Z,75.30
2023-01-30T05:12:15.874Z,75.32
2023-01-30T05:14:42.551Z,75.39
2023-01-30T05:17:09.237Z,75.30
2023-01-30T05:19:36.376Z,75.30
2023-01-30T05:22:03.218Z,75.40
2023-01-30T05:24:29.855Z,75.35
2023-01-30T05:26:56.539Z,75.28
2023-01-30T05:29:23.231Z,75.30
2023-01-30T05:31:49.879Z,75.39
2023-01-30T05:34:16.573Z,75.43
2023-01-30T05:36:43.195Z,75.40
2023-01-30T05:39:09.703Z,75.41
2023-01-30T05:41:36.351Z,75.39
2023-01-30T05:44:03.027Z,75.24
2023-01-30T05:46:29.659Z,75.21
2023-01-30T05:48:56.461Z,75.07
2023-01-30T05:51:27.002Z,74.97
2023-01-30T05:53:53.680Z,74.88
2023-01-30T05:56:21.108Z,74.80
2023-01-30T05:58:57.976Z,74.77
2023-01-30T06:01:25.015Z,74.70
2023-01-30T06:03:52.559Z,74.72
2023-01-30T06:06:20.153Z,74.67
2023-01-30T06:08:47.312Z,74.61
2023-01-30T06:11:16.406Z,74.68
2023-01-30T06:13:43.832Z,74.66
2023-01-30T06:16:16.165Z,74.61
2023-01-30T06:18:43.334Z,74.51
2023-01-30T06:21:10.220Z,74.39
2023-01-30T06:23:36.930Z,74.32
2023-01-30T06:26:05.866Z,74.27
2023-01-30T06:28:36.890Z,74.25
2023-01-30T06:31:07.486Z,74.00
2023-01-30T06:33:34.413Z,73.78
2023-01-30T06:36:01.106Z,73.61
2023-01-30T06:38:27.736Z,73.51
2023-01-30T06:40:54.408Z,73.48
2023-01-30T06:43:20.985Z,73.52
2023-01-30T06:45:47.593Z,73.43
2023-01-30T06:48:14.353Z,73.37
2023-01-30T06:50:40.986Z,73.37
2023-01-30T06:53:08.766Z,73.36
2023-01-30T06:55:36.598Z,73.37
2023-01-30T06:58:12.997Z,73.18
2023-01-30T07:00:42.374Z,73.26
2023-01-30T07:03:14.791Z,73.26
2023-01-30T07:05:43.552Z,73.20
2023-01-30T07:08:11.318Z,73.17
2023-01-30T07:10:38.756Z,73.04
2023-01-30T07:13:05.650Z,72.94
2023-01-30T07:15:32.534Z,72.81
2023-01-30T07:17:59.897Z,72.70
2023-01-30T07:20:26.943Z,72.60
2023-01-30T07:22:56.082Z,72.45
2023-01-30T07:25:25.872Z,72.23
2023-01-30T07:27:55.113Z,71.86
2023-01-30T07:30:22.173Z,71.59
2023-01-30T07:32:54.708Z,71.28
2023-01-30T07:35:23.115Z,70.98
2023-01-30T07:37:51.223Z,70.87
2023-01-30T07:40:19.769Z,70.84
2023-01-30T07:43:18.962Z,70.44
2023-01-30T07:45:48.115Z,70.02
2023-01-30T07:48:17.943Z,69.76
2023-01-30T07:50:46.009Z,69.48
2023-01-30T07:53:16.513Z,69.24
2023-01-30T07:55:43.531Z,68.91
2023-01-30T07:58:14.672Z,68.43
2023-01-30T08:00:41.494Z,68.06
2023-01-30T08:03:14.145Z,67.54
2023-01-30T08:05:40.682Z,67.63
2023-01-30T08:08:07.357Z,66.69
2023-01-30T08:10:33.907Z,65.78
2023-01-30T08:13:00.571Z,65.86
2023-01-30T08:15:27.297Z,65.74
2023-01-30T08:17:56.131Z,65.74
2023-01-30T08:20:24.701Z,65.31
2023-01-30T08:22:51.556Z,64.95
2023-01-30T08:25:18.400Z,65.01
2023-01-30T08:27:44.995Z,64.14
2023-01-30T08:30:12.630Z,64.12
2023-01-30T08:32:39.296Z,64.20
2023-01-30T08:35:06.636Z,64.10
2023-01-30T08:37:33.224Z,64.33
2023-01-30T08:39:59.804Z,64.47
2023-01-30T08:42:26.374Z,63.89
2023-01-30T08:44:53.080Z,64.03
2023-01-30T08:47:19.895Z,64.26
2023-01-30T08:49:46.473Z,64.20
2023-01-30T08:52:13.061Z,64.15
2023-01-30T08:54:39.626Z,64.10
2023-01-30T08:57:06.156Z,63.70
2023-01-30T08:59:32.786Z,63.17
2023-01-30T09:01:59.343Z,63.43
2023-01-30T09:04:27.053Z,63.58
2023-01-30T09:06:54.744Z,63.44
2023-01-30T09:09:21.385Z,63.31
2023-01-30T09:11:48.216Z,63.39
2023-01-30T09:14:19.928Z,63.07
2023-01-30T09:16:48.367Z,63.09
2023-01-30T09:19:15.154Z,62.73
2023-01-30T09:21:41.748Z,62.48
2023-01-30T09:24:08.524Z,62.37
2023-01-30T09:26:35.215Z,62.28
2023-01-30T09:29:01.757Z,62.42
2023-01-30T09:31:28.454Z,61.94
2023-01-30T09:33:55.115Z,62.20
2023-01-30T09:36:21.801Z,62.55
2023-01-30T09:38:48.439Z,62.17
2023-01-30T09:41:53.503Z,61.92
2023-01-30T09:45:01.765Z,60.97
2023-01-30T09:47:55.401Z,59.45
2023-01-30T09:50:43.575Z,58.06
2023-01-30T09:53:22.638Z,56.93
2023-01-30T09:55:49.302Z,56.43
2023-01-30T09:58:25.686Z,56.88
2023-01-30T10:00:59.249Z,56.03
2023-01-30T10:03:41.584Z,55.93
2023-01-30T10:06:14.511Z,56.09
2023-01-30T10:08:59.489Z,55.65
2023-01-30T10:11:42.842Z,55.47
2023-01-30T10:14:22.954Z,55.43
2023-01-30T10:17:07.771Z,55.27
2023-01-30T10:20:18.141Z,54.15
2023-01-30T10:23:05.247Z,52.18
2023-01-30T10:25:43.816Z,50.15
2023-01-30T10:28:26.855Z,49.65
2023-01-30T10:31:04.630Z,49.41
2023-01-30T10:33:46.261Z,47.99
2023-01-30T10:36:18.920Z,45.95
2023-01-30T10:38:51.557Z,45.16
2023-01-30T10:41:24.916Z,43.82
2023-01-30T10:44:04.281Z,42.71
2023-01-30T10:46:47.546Z,42.31
2023-01-30T10:49:32.803Z,42.17
2023-01-30T10:52:27.226Z,42.42
2023-01-30T10:55:36.005Z,42.21
2023-01-30T10:58:31.142Z,42.74
2023-01-30T11:01:26.208Z,42.92
2023-01-30T11:04:03.625Z,43.28
2023-01-30T11:06:32.562Z,43.96
2023-01-30T11:08:59.387Z,44.28
2023-01-30T11:11:48.562Z,44.70
2023-01-30T11:14:15.453Z,45.62
2023-01-30T11:16:54.903Z,46.29
2023-01-30T11:19:32.982Z,46.81
2023-01-30T11:22:05.578Z,47.01
2023-01-30T11:24:40.177Z,47.73
2023-01-30T11:27:29.022Z,48.06
2023-01-30T11:30:16.387Z,49.07
2023-01-30T11:32:45.940Z,49.39
2023-01-30T11:35:15.585Z,50.25
2023-01-30T11:37:45.069Z,50.28
2023-01-30T11:40:18.011Z,50.22
2023-01-30T11:43:01.773Z,50.22
2023-01-30T11:45:30.514Z,50.92
2023-01-30T11:48:05.034Z,51.18
2023-01-30T11:50:44.892Z,51.29
2023-01-30T11:53:44.903Z,51.66
2023-01-30T11:56:50.959Z,51.71
2023-01-30T11:59:59.571Z,52.15
2023-01-30T12:02:32.996Z,52.39
2023-01-30T12:05:07.063Z,52.50
2023-01-30T12:07:37.175Z,52.91
2023-01-30T12:10:23.956Z,53.35
2023-01-30T12:12:55.100Z,53.54
2023-01-30T12:15:37.834Z,53.84
2023-01-30T12:18:20.503Z,54.18
2023-01-30T12:21:23.748Z,54.56
2023-01-30T12:24:03.371Z,54.90
2023-01-30T12:26:37.916Z,55.21
2023-01-30T12:29:28.198Z,55.49
2023-01-30T12:34:33.627Z,56.01
2023-01-30T12:37:08.919Z,56.17
2023-01-30T12:40:23.547Z,56.29
2023-01-30T12:43:28.381Z,56.45
2023-01-30T12:46:10.217Z,56.61
2023-01-30T12:49:02.326Z,56.58
2023-01-30T12:52:07.684Z,56.87
2023-01-30T12:54:40.145Z,57.13
2023-01-30T12:57:18.790Z,57.27
2023-01-30T13:00:20.951Z,57.48
2023-01-30T13:03:12.748Z,57.47
2023-01-30T13:06:24.262Z,57.55
2023-01-30T13:09:08.319Z,57.89
2023-01-30T13:12:01.338Z,58.01
2023-01-30T13:14:56.960Z,58.05
2023-01-30T13:17:53.286Z,58.18
2023-01-30T13:20:54.748Z,58.29
2023-01-30T13:24:12.444Z,58.27
2023-01-30T13:26:42.627Z,58.14
2023-01-30T13:29:39.946Z,58.12
2023-01-30T13:32:36.239Z,58.13
2023-01-30T13:35:07.900Z,57.70
2023-01-30T13:37:36.682Z,57.78
2023-01-30T13:40:18.123Z,57.84
2023-01-30T13:42:52.618Z,57.74
2023-01-30T13:45:40.202Z,57.87
2023-01-30T13:48:22.037Z,57.99
2023-01-30T13:51:13.624Z,58.08
2023-01-30T13:53:48.841Z,58.13
2023-01-30T13:56:44.170Z,58.29
2023-01-30T13:59:35.739Z,58.33
2023-01-30T14:02:10.178Z,58.46
2023-01-30T14:04:36.871Z,58.51
2023-01-30T14:07:12.435Z,58.47
2023-01-30T14:09:49.307Z,58.54
2023-01-30T14:12:28.848Z,58.57
2023-01-30T14:15:31.877Z,58.63
2023-01-30T14:17:59.602Z,58.72
2023-01-30T14:20:29.142Z,58.70
2023-01-30T14:22:58.784Z,59.01
2023-01-30T14:25:25.397Z,59.55
2023-01-30T14:28:17.584Z,60.19
2023-01-30T14:30:44.153Z,60.54
2023-01-30T14:33:22.937Z,60.56
2023-01-30T14:35:58.818Z,60.50
2023-01-30T14:38:28.046Z,60.55
2023-01-30T14:41:00.816Z,60.72
2023-01-30T14:43:53.641Z,60.87
2023-01-30T14:46:20.569Z,61.32
2023-01-30T14:48:56.873Z,61.64
2023-01-30T14:51:45.492Z,61.93
2023-01-30T14:54:12.814Z,62.04
2023-01-30T14:57:05.997Z,62.41
2023-01-30T14:59:40.063Z,62.19
2023-01-30T15:02:12.732Z,62.30
2023-01-30T15:05:01.451Z,62.21
2023-01-30T15:07:52.187Z,62.14
2023-01-30T15:11:05.552Z,62.07
2023-01-30T15:14:16.253Z,62.27
2023-01-30T15:17:26.775Z,62.35
2023-01-30T15:20:09.185Z,62.50
2023-01-30T15:22:51.556Z,62.69
2023-01-30T15:25:32.691Z,63.19
2023-01-30T15:28:24.955Z,63.35
2023-01-30T15:31:14.608Z,63.41
2023-01-30T15:33:47.498Z,63.61
2023-01-30T15:36:27.714Z,63.82
2023-01-30T15:39:06.732Z,63.88
2023-01-30T15:41:41.074Z,63.94
2023-01-30T15:44:14.569Z,64.00
2023-01-30T15:47:33.604Z,63.97
2023-01-30T15:50:06.718Z,64.19
2023-01-30T15:52:47.144Z,64.24
2023-01-30T15:55:34.053Z,64.56
2023-01-30T15:58:10.793Z,64.76
2023-01-30T16:00:46.513Z,64.81
2023-01-30T16:03:30.231Z,64.88
2023-01-30T16:05:58.345Z,65.00
2023-01-30T16:08:34.607Z,65.07
2023-01-30T16:11:01.889Z,65.21
2023-01-30T16:13:29.966Z,65.38
2023-01-30T16:16:09.463Z,65.40
2023-01-30T16:19:02.359Z,65.64
2023-01-30T16:21:34.831Z,65.76
2023-01-30T16:24:25.061Z,65.99
2023-01-30T16:26:58.158Z,65.99
2023-01-30T16:29:27.734Z,65.97
2023-01-30T16:31:55.583Z,66.10
2023-01-30T16:34:43.723Z,66.27
2023-01-30T16:37:16.388Z,66.57
2023-01-30T16:39:45.693Z,66.72
2023-01-30T16:42:28.499Z,66.74
2023-01-30T16:45:13.648Z,66.84
2023-01-30T16:47:40.989Z,66.97
2023-01-30T16:50:23.477Z,67.11
2023-01-30T16:52:55.811Z,67.30
2023-01-30T16:55:25.256Z,67.42
2023-01-30T16:57:56.135Z,67.41
2023-01-30T17:00:34.377Z,67.62
2023-01-30T17:03:05.930Z,67.91
2023-01-30T17:05:43.253Z,68.11
2023-01-30T17:08:48.628Z,68.63
2023-01-30T17:11:41.588Z,68.67
2023-01-30T17:14:14.129Z,68.68
2023-01-30T17:16:43.079Z,69.22
2023-01-30T17:19:09.644Z,69.25
2023-01-30T17:21:48.696Z,69.57
2023-01-30T17:24:19.778Z,69.76
2023-01-30T17:26:49.931Z,69.83
2023-01-30T17:29:23.472Z,69.94
2023-01-30T17:31:57.489Z,69.90
2023-01-30T17:34:25.815Z,70.05
2023-01-30T17:36:54.912Z,70.17
2023-01-30T17:39:25.972Z,69.98
2023-01-30T17:41:53.916Z,69.84
2023-01-30T17:44:20.491Z,69.89
2023-01-30T17:46:49.282Z,69.87
2023-01-30T17:49:22.863Z,69.74
2023-01-30T17:51:51.586Z,69.75
2023-01-30T17:54:20.561Z,69.70
2023-01-30T17:56:52.648Z,69.54
2023-01-30T17:59:20.967Z,69.45
2023-01-30T18:01:50.520Z,69.49
2023-01-30T18:04:19.190Z,69.52
2023-01-30T18:06:50.887Z,69.46
2023-01-30T18:09:24.490Z,69.37
2023-01-30T18:11:51.827Z,69.36
2023-01-30T18:14:19.064Z,69.35
2023-01-30T18:16:45.862Z,69.30
2023-01-30T18:19:18.395Z,69.27
2023-01-30T18:21:45.609Z,69.13
2023-01-30T18:24:13.822Z,69.21
2023-01-30T18:26:41.174Z,69.32
2023-01-30T18:29:09.940Z,69.31
2023-01-30T18:31:37.860Z,69.41
2023-01-30T18:34:04.926Z,69.31
2023-01-30T18:36:35.113Z,69.43
2023-01-30T18:39:01.939Z,69.42
2023-01-30T18:41:30.198Z,69.50
2023-01-30T18:44:00.538Z,69.44
2023-01-30T18:46:28.181Z,69.40
2023-01-30T18:48:56.070Z,69.49
2023-01-30T18:51:26.286Z,69.52
2023-01-30T18:53:54.170Z,69.50
2023-01-30T18:56:24.534Z,69.53
2023-01-30T18:58:53.897Z,69.57
2023-01-30T19:01:24.250Z,69.63
2023-01-30T19:03:56.083Z,69.58
2023-01-30T19:06:23.379Z,69.52
2023-01-30T19:08:49.998Z,69.51
2023-01-30T19:11:39.256Z,69.57
2023-01-30T19:14:07.242Z,69.58
2023-01-30T19:16:36.677Z,69.49
2023-01-30T19:19:04.659Z,69.55
2023-01-30T19:21:32.064Z,69.53
2023-01-30T19:23:59.728Z,69.54
2023-01-30T19:26:28.945Z,69.62
2023-01-30T19:28:55.692Z,69.56
2023-01-30T19:31:22.801Z,69.65
2023-01-30T19:33:56.595Z,69.70
2023-01-30T19:36:25.877Z,69.65
2023-01-30T19:38:53.007Z,69.67
2023-01-30T19:41:26.693Z,69.60
2023-01-30T19:43:55.657Z,69.54
2023-01-30T19:46:22.899Z,69.89
2023-01-30T19:48:50.187Z,69.95
2023-01-30T19:51:29.816Z,70.08
2023-01-30T19:54:00.157Z,70.17
2023-01-30T19:56:28.370Z,70.32
2023-01-30T19:58:58.456Z,70.47
2023-01-30T20:01:29.830Z,71.18
2023-01-30T20:03:57.314Z,71.59
2023-01-30T20:06:31.552Z,71.42
2023-01-30T20:09:02.296Z,71.65
2023-01-30T20:11:30.361Z,71.40
2023-01-30T20:13:58.769Z,71.18
2023-01-30T20:16:27.569Z,70.96
2023-01-30T20:19:01.167Z,70.79
2023-01-30T20:21:30.135Z,70.47
2023-01-30T20:23:58.303Z,70.31
2023-01-30T20:26:32.192Z,70.24
2023-01-30T20:28:58.861Z,70.12
2023-01-30T20:31:29.605Z,70.26
2023-01-30T20:33:57.692Z,70.19
2023-01-30T20:36:27.177Z,70.23
2023-01-30T20:38:56.527Z,70.25
2023-01-30T20:41:26.319Z,70.38
2023-01-30T20:43:57.549Z,70.30
2023-01-30T20:46:38.941Z,70.36
2023-01-30T20:49:05.663Z,70.19
2023-01-30T20:51:34.948Z,70.26
2023-01-30T20:54:05.672Z,70.23
2023-01-30T20:56:38.605Z,70.39
2023-01-30T20:59:07.692Z,70.53
2023-01-30T21:01:34.457Z,70.53
2023-01-30T21:04:07.269Z,70.31
2023-01-30T21:06:37.014Z,70.15
2023-01-30T21:09:14.883Z,70.19
2023-01-30T21:11:41.520Z,70.15
2023-01-30T21:14:08.108Z,70.00
2023-01-30T21:16:36.318Z,70.08
2023-01-30T21:19:08.078Z,70.17
2023-01-30T21:21:52.741Z,70.14
2023-01-30T21:24:27.239Z,70.16
2023-01-30T21:26:56.564Z,70.15
2023-01-30T21:29:25.895Z,70.26
2023-01-30T21:31:53.869Z,70.14
2023-01-30T21:34:20.577Z,70.16
2023-01-30T21:37:06.167Z,70.20
2023-01-30T21:39:52.691Z,70.35
2023-01-30T21:42:39.109Z,70.48
2023-01-30T21:45:06.926Z,70.75
2023-01-30T21:47:33.608Z,70.85
2023-01-30T21:50:00.430Z,70.96
2023-01-30T21:52:27.048Z,71.00
2023-01-30T21:54:53.703Z,71.18
2023-01-30T21:57:20.388Z,71.21
2023-01-30T21:59:47.070Z,71.26
2023-01-30T22:02:13.646Z,71.37
2023-01-30T22:04:40.266Z,71.31
2023-01-30T22:07:07.078Z,71.42
2023-01-30T22:09:33.774Z,71.41
2023-01-30T22:12:00.388Z,71.38
2023-01-30T22:14:27.012Z,71.47
2023-01-30T22:16:53.710Z,71.54
2023-01-30T22:19:20.617Z,71.57
2023-01-30T22:21:47.344Z,71.60
2023-01-30T22:24:13.855Z,71.56
2023-01-30T22:26:40.835Z,71.42
2023-01-30T22:29:07.740Z,71.42
2023-01-30T22:31:37.446Z,71.51
2023-01-30T22:34:04.969Z,71.50
2023-01-30T22:36:34.315Z,71.48
2023-01-30T22:39:01.621Z,71.51
2023-01-30T22:41:34.683Z,71.65
2023-01-30T22:44:04.206Z,71.49
2023-01-30T22:46:38.609Z,71.36
2023-01-30T22:49:07.569Z,71.47
2023-01-30T22:51:39.952Z,71.44
2023-01-30T22:54:15.772Z,71.50
2023-01-30T22:56:46.263Z,71.38
2023-01-30T22:59:14.742Z,71.28
2023-01-30T23:01:47.839Z,71.12
2023-01-30T23:04:23.535Z,71.06
2023-01-30T23:06:51.951Z,71.02
2023-01-30T23:09:22.940Z,70.92
2023-01-30T23:12:15.269Z,70.89
2023-01-30T23:14:42.899Z,70.73
2023-01-30T23:17:28.134Z,70.59
2023-01-30T23:19:55.848Z,70.71
2023-01-30T23:22:22.983Z,70.65
2023-01-30T23:24:51.324Z,70.60
2023-01-30T23:27:18.820Z,70.62
2023-01-30T23:29:45.477Z,70.71
2023-01-30T23:32:12.181Z,70.69
2023-01-30T23:34:39.104Z,70.71
2023-01-30T23:37:05.750Z,70.83
2023-01-30T23:39:32.386Z,70.82
2023-01-30T23:41:59.020Z,70.84
2023-01-30T23:44:25.580Z,70.90
2023-01-30T23:46:52.635Z,71.00
2023-01-30T23:49:19.334Z,71.12
2023-01-30T23:51:46.171Z,70.90
2023-01-30T23:54:14.371Z,70.86
2023-01-30T23:56:43.751Z,70.88
2023-01-30T23:59:12.331Z,70.87
